University Park, New Mexico
Current Conditions -  °F | °C
As of 3:35 PM on Thursday 23 Oct 2014 (Local Time) from KLRU Reporting Station
Clear Clear  
Wind Chill: 77°   Ceiling: Unl
Heat Index: 78°   Visibility: 10mi
Dew Point: 48°   Wind: 3mph
Humidity: 35%   Direction: 130°SE
Pressure: 30.17"   Gusts: NA
Location:  32.2825°N, 106.737°W
Report Text: KLRU 232135Z AUTO 13003KT 10SM CLR 25/09 A3017 RMK AO2 T02500087
Loading
Personal Weather Stations






























Interactive Weather Map
Tropical Storm Tracking
New forecast layout! Learn more

10-Day Weather Forecast

Advertisements
Track Severe Weather on mobile